sensor_id;sensor_type;location;lat;lon;timestamp;temperature;humidity
15481;DHT22;7842;50.904;6.670;2022-12-29T00:01:35;11.90;99.90
15481;DHT22;7842;50.904;6.670;2022-12-29T00:04:01;11.90;99.90
15481;DHT22;7842;50.904;6.670;2022-12-29T00:06:27;11.80;99.90
15481;DHT22;7842;50.904;6.670;2022-12-29T00:08:52;11.90;99.90
15481;DHT22;7842;50.904;6.670;2022-12-29T00:11:21;12.00;99.90
15481;DHT22;7842;50.904;6.670;2022-12-29T00:13:47;11.90;99.90
15481;DHT22;7842;50.904;6.670;2022-12-29T00:16:32;11.90;99.90
15481;DHT22;7842;50.904;6.670;2022-12-29T00:18:58;11.90;99.90
15481;DHT22;7842;50.904;6.670;2022-12-29T00:21:25;11.90;99.90
15481;DHT22;7842;50.904;6.670;2022-12-29T00:24:22;11.90;99.90
15481;DHT22;7842;50.904;6.670;2022-12-29T00:29:48;11.90;99.90
15481;DHT22;7842;50.904;6.670;2022-12-29T00:32:32;11.90;99.90
15481;DHT22;7842;50.904;6.670;2022-12-29T00:35:39;11.90;99.90
15481;DHT22;7842;50.904;6.670;2022-12-29T00:38:07;11.90;99.90
15481;DHT22;7842;50.904;6.670;2022-12-29T00:40:52;12.00;99.90
15481;DHT22;7842;50.904;6.670;2022-12-29T00:43:36;12.00;99.90
15481;DHT22;7842;50.904;6.670;2022-12-29T00:46:20;12.00;99.90
15481;DHT22;7842;50.904;6.670;2022-12-29T00:48:46;12.10;99.90
15481;DHT22;7842;50.904;6.670;2022-12-29T00:51:30;12.20;99.90
15481;DHT22;7842;50.904;6.670;2022-12-29T00:53:55;12.20;99.90
15481;DHT22;7842;50.904;6.670;2022-12-29T00:56:21;12.20;99.90
15481;DHT22;7842;50.904;6.670;2022-12-29T00:58:46;12.20;99.90
15481;DHT22;7842;50.904;6.670;2022-12-29T01:01:12;12.20;99.90
15481;DHT22;7842;50.904;6.670;2022-12-29T01:03:38;12.20;99.90
15481;DHT22;7842;50.904;6.670;2022-12-29T01:06:06;12.20;99.90
15481;DHT22;7842;50.904;6.670;2022-12-29T01:08:33;12.10;99.90
15481;DHT22;7842;50.904;6.670;2022-12-29T01:11:07;12.10;99.90
15481;DHT22;7842;50.904;6.670;2022-12-29T01:13:34;12.10;99.90
15481;DHT22;7842;50.904;6.670;2022-12-29T01:16:00;12.00;99.90
15481;DHT22;7842;50.904;6.670;2022-12-29T01:18:26;12.00;99.90
15481;DHT22;7842;50.904;6.670;2022-12-29T01:21:10;12.00;99.90
15481;DHT22;7842;50.904;6.670;2022-12-29T01:23:36;12.00;99.90
15481;DHT22;7842;50.904;6.670;2022-12-29T01:26:12;12.10;99.90
15481;DHT22;7842;50.904;6.670;2022-12-29T01:28:38;12.10;99.90
15481;DHT22;7842;50.904;6.670;2022-12-29T01:31:06;12.20;99.90
15481;DHT22;7842;50.904;6.670;2022-12-29T01:33:31;12.30;99.90
15481;DHT22;7842;50.904;6.670;2022-12-29T01:36:04;12.40;99.90
15481;DHT22;7842;50.904;6.670;2022-12-29T01:38:31;12.40;99.90
15481;DHT22;7842;50.904;6.670;2022-12-29T01:40:56;12.40;99.90
15481;DHT22;7842;50.904;6.670;2022-12-29T01:43:51;12.60;99.90
15481;DHT22;7842;50.904;6.670;2022-12-29T01:46:25;12.50;99.90
15481;DHT22;7842;50.904;6.670;2022-12-29T01:49:16;12.50;99.90
15481;DHT22;7842;50.904;6.670;2022-12-29T01:51:47;12.50;99.90
15481;DHT22;7842;50.904;6.670;2022-12-29T01:54:22;12.60;99.90
15481;DHT22;7842;50.904;6.670;2022-12-29T01:56:51;12.80;99.90
15481;DHT22;7842;50.904;6.670;2022-12-29T01:59:20;12.70;99.90
15481;DHT22;7842;50.904;6.670;2022-12-29T02:01:48;12.70;99.90
15481;DHT22;7842;50.904;6.670;2022-12-29T02:04:14;12.60;99.90
15481;DHT22;7842;50.904;6.670;2022-12-29T02:06:51;12.70;99.90
15481;DHT22;7842;50.904;6.670;2022-12-29T02:09:19;12.70;99.90
15481;DHT22;7842;50.904;6.670;2022-12-29T02:11:44;12.70;99.90
15481;DHT22;7842;50.904;6.670;2022-12-29T02:14:12;12.70;99.90
15481;DHT22;7842;50.904;6.670;2022-12-29T02:27:48;12.60;99.90
15481;DHT22;7842;50.904;6.670;2022-12-29T02:30:38;12.50;99.90
15481;DHT22;7842;50.904;6.670;2022-12-29T02:33:28;12.50;99.90
15481;DHT22;7842;50.904;6.670;2022-12-29T02:39:23;12.40;99.90
15481;DHT22;7842;50.904;6.670;2022-12-29T02:42:12;12.40;99.90
15481;DHT22;7842;50.904;6.670;2022-12-29T02:47:56;12.40;99.90
15481;DHT22;7842;50.904;6.670;2022-12-29T02:50:33;12.40;99.90
15481;DHT22;7842;50.904;6.670;2022-12-29T02:53:05;12.50;99.90
15481;DHT22;7842;50.904;6.670;2022-12-29T02:55:32;12.40;99.90
15481;DHT22;7842;50.904;6.670;2022-12-29T02:58:17;12.50;99.90
15481;DHT22;7842;50.904;6.670;2022-12-29T03:03:35;12.50;99.90
15481;DHT22;7842;50.904;6.670;2022-12-29T03:11:50;12.40;99.90
15481;DHT22;7842;50.904;6.670;2022-12-29T03:20:20;12.40;99.90
15481;DHT22;7842;50.904;6.670;2022-12-29T03:22:49;12.30;99.90
15481;DHT22;7842;50.904;6.670;2022-12-29T03:25:23;12.40;99.90
15481;DHT22;7842;50.904;6.670;2022-12-29T03:28:01;12.40;99.90
15481;DHT22;7842;50.904;6.670;2022-12-29T03:30:29;12.40;99.90
15481;DHT22;7842;50.904;6.670;2022-12-29T03:32:59;12.40;99.90
15481;DHT22;7842;50.904;6.670;2022-12-29T03:35:29;12.40;99.90
15481;DHT22;7842;50.904;6.670;2022-12-29T03:38:09;12.40;99.90
15481;DHT22;7842;50.904;6.670;2022-12-29T03:40:37;12.40;99.90
15481;DHT22;7842;50.904;6.670;2022-12-29T03:43:04;12.40;99.90
15481;DHT22;7842;50.904;6.670;2022-12-29T03:45:30;12.40;99.90
15481;DHT22;7842;50.904;6.670;2022-12-29T03:47:56;12.40;99.90
15481;DHT22;7842;50.904;6.670;2022-12-29T03:50:21;12.40;99.90
15481;DHT22;7842;50.904;6.670;2022-12-29T03:52:47;12.40;99.90
15481;DHT22;7842;50.904;6.670;2022-12-29T03:55:12;12.40;99.90
15481;DHT22;7842;50.904;6.670;2022-12-29T03:57:38;12.40;99.90
15481;DHT22;7842;50.904;6.670;2022-12-29T04:00:05;12.40;99.90
15481;DHT22;7842;50.904;6.670;2022-12-29T04:02:31;12.40;99.90
15481;DHT22;7842;50.904;6.670;2022-12-29T04:04:56;12.30;99.90
15481;DHT22;7842;50.904;6.670;2022-12-29T04:07:22;12.30;99.90
15481;DHT22;7842;50.904;6.670;2022-12-29T04:09:48;12.30;99.90
15481;DHT22;7842;50.904;6.670;2022-12-29T04:12:13;12.40;99.90
15481;DHT22;7842;50.904;6.670;2022-12-29T04:14:40;12.30;99.90
15481;DHT22;7842;50.904;6.670;2022-12-29T04:17:05;12.30;99.90
15481;DHT22;7842;50.904;6.670;2022-12-29T04:19:31;12.20;99.90
15481;DHT22;7842;50.904;6.670;2022-12-29T04:21:57;12.20;99.90
15481;DHT22;7842;50.904;6.670;2022-12-29T04:24:24;12.20;99.90
15481;DHT22;7842;50.904;6.670;2022-12-29T04:26:50;12.20;99.90
15481;DHT22;7842;50.904;6.670;2022-12-29T04:29:15;12.20;99.90
15481;DHT22;7842;50.904;6.670;2022-12-29T04:31:41;12.20;99.90
15481;DHT22;7842;50.904;6.670;2022-12-29T04:34:06;12.20;99.90
15481;DHT22;7842;50.904;6.670;2022-12-29T04:36:32;12.20;99.90
15481;DHT22;7842;50.904;6.670;2022-12-29T04:38:58;12.20;99.90
15481;DHT22;7842;50.904;6.670;2022-12-29T04:41:24;12.20;99.90
15481;DHT22;7842;50.904;6.670;2022-12-29T04:43:50;12.20;99.90
15481;DHT22;7842;50.904;6.670;2022-12-29T04:46:15;12.20;99.90
15481;DHT22;7842;50.904;6.670;2022-12-29T04:48:41;12.20;99.90
15481;DHT22;7842;50.904;6.670;2022-12-29T04:51:07;12.30;99.90
15481;DHT22;7842;50.904;6.670;2022-12-29T04:53:32;12.30;99.90
15481;DHT22;7842;50.904;6.670;2022-12-29T04:55:58;12.50;99.90
15481;DHT22;7842;50.904;6.670;2022-12-29T04:58:23;12.70;99.90
15481;DHT22;7842;50.904;6.670;2022-12-29T05:00:50;12.80;99.90
15481;DHT22;7842;50.904;6.670;2022-12-29T05:03:17;12.60;99.90
15481;DHT22;7842;50.904;6.670;2022-12-29T05:05:42;12.60;99.90
15481;DHT22;7842;50.904;6.670;2022-12-29T05:08:08;12.60;99.90
15481;DHT22;7842;50.904;6.670;2022-12-29T05:10:34;12.50;99.90
15481;DHT22;7842;50.904;6.670;2022-12-29T05:12:59;12.60;99.90
15481;DHT22;7842;50.904;6.670;2022-12-29T05:15:26;12.50;99.90
15481;DHT22;7842;50.904;6.670;2022-12-29T05:17:51;12.70;99.90
15481;DHT22;7842;50.904;6.670;2022-12-29T05:20:17;13.20;99.90
15481;DHT22;7842;50.904;6.670;2022-12-29T05:22:43;12.80;99.90
15481;DHT22;7842;50.904;6.670;2022-12-29T05:25:09;12.90;99.90
15481;DHT22;7842;50.904;6.670;2022-12-29T05:27:35;12.60;99.90
15481;DHT22;7842;50.904;6.670;2022-12-29T05:30:00;12.70;99.90
15481;DHT22;7842;50.904;6.670;2022-12-29T05:32:26;13.20;99.90
15481;DHT22;7842;50.904;6.670;2022-12-29T05:34:51;12.60;99.90
15481;DHT22;7842;50.904;6.670;2022-12-29T05:37:17;12.50;99.90
15481;DHT22;7842;50.904;6.670;2022-12-29T05:39:43;12.80;99.90
15481;DHT22;7842;50.904;6.670;2022-12-29T05:42:08;12.80;99.90
15481;DHT22;7842;50.904;6.670;2022-12-29T05:44:37;12.60;99.90
15481;DHT22;7842;50.904;6.670;2022-12-29T05:47:02;12.60;99.90
15481;DHT22;7842;50.904;6.670;2022-12-29T05:49:28;12.80;99.90
15481;DHT22;7842;50.904;6.670;2022-12-29T05:51:53;12.80;99.90
15481;DHT22;7842;50.904;6.670;2022-12-29T05:54:19;12.80;99.90
15481;DHT22;7842;50.904;6.670;2022-12-29T05:56:45;12.80;99.90
15481;DHT22;7842;50.904;6.670;2022-12-29T05:59:10;12.80;99.90
15481;DHT22;7842;50.904;6.670;2022-12-29T06:01:36;12.80;99.90
15481;DHT22;7842;50.904;6.670;2022-12-29T06:04:01;12.90;99.90
15481;DHT22;7842;50.904;6.670;2022-12-29T06:06:27;12.90;99.90
15481;DHT22;7842;50.904;6.670;2022-12-29T06:08:53;12.90;99.90
15481;DHT22;7842;50.904;6.670;2022-12-29T06:11:18;12.70;99.90
15481;DHT22;7842;50.904;6.670;2022-12-29T06:13:44;12.60;99.90
15481;DHT22;7842;50.904;6.670;2022-12-29T06:16:09;12.50;99.90
15481;DHT22;7842;50.904;6.670;2022-12-29T06:18:35;12.50;99.90
15481;DHT22;7842;50.904;6.670;2022-12-29T06:21:02;12.50;99.90
15481;DHT22;7842;50.904;6.670;2022-12-29T06:23:28;12.50;99.90
15481;DHT22;7842;50.904;6.670;2022-12-29T06:25:53;12.40;99.90
15481;DHT22;7842;50.904;6.670;2022-12-29T06:28:20;12.40;99.90
15481;DHT22;7842;50.904;6.670;2022-12-29T06:30:46;12.40;99.90
15481;DHT22;7842;50.904;6.670;2022-12-29T06:33:13;12.30;99.90
15481;DHT22;7842;50.904;6.670;2022-12-29T06:35:38;12.40;99.90
15481;DHT22;7842;50.904;6.670;2022-12-29T06:38:04;12.30;99.90
15481;DHT22;7842;50.904;6.670;2022-12-29T06:40:30;12.40;99.90
15481;DHT22;7842;50.904;6.670;2022-12-29T06:42:56;12.40;99.90
15481;DHT22;7842;50.904;6.670;2022-12-29T06:45:21;12.30;99.90
15481;DHT22;7842;50.904;6.670;2022-12-29T06:47:47;12.40;99.90
15481;DHT22;7842;50.904;6.670;2022-12-29T06:50:12;12.50;99.90
15481;DHT22;7842;50.904;6.670;2022-12-29T06:52:38;12.40;99.90
15481;DHT22;7842;50.904;6.670;2022-12-29T06:55:04;12.50;99.90
15481;DHT22;7842;50.904;6.670;2022-12-29T06:57:29;12.50;99.90
15481;DHT22;7842;50.904;6.670;2022-12-29T06:59:55;12.50;99.90
15481;DHT22;7842;50.904;6.670;2022-12-29T07:02:21;12.40;99.90
15481;DHT22;7842;50.904;6.670;2022-12-29T07:04:47;12.40;99.90
15481;DHT22;7842;50.904;6.670;2022-12-29T07:07:12;12.50;99.90
15481;DHT22;7842;50.904;6.670;2022-12-29T07:09:38;12.30;99.90
15481;DHT22;7842;50.904;6.670;2022-12-29T07:12:04;12.30;99.90
15481;DHT22;7842;50.904;6.670;2022-12-29T07:14:29;12.30;99.90
15481;DHT22;7842;50.904;6.670;2022-12-29T07:16:55;12.30;99.90
15481;DHT22;7842;50.904;6.670;2022-12-29T07:19:20;12.40;99.90
15481;DHT22;7842;50.904;6.670;2022-12-29T07:21:46;12.30;99.90
15481;DHT22;7842;50.904;6.670;2022-12-29T07:24:12;12.40;99.90
15481;DHT22;7842;50.904;6.670;2022-12-29T07:26:37;12.40;99.90
15481;DHT22;7842;50.904;6.670;2022-12-29T07:29:04;12.40;99.90
15481;DHT22;7842;50.904;6.670;2022-12-29T07:31:29;12.40;99.90
15481;DHT22;7842;50.904;6.670;2022-12-29T07:33:55;12.20;99.90
15481;DHT22;7842;50.904;6.670;2022-12-29T07:36:21;12.40;99.90
15481;DHT22;7842;50.904;6.670;2022-12-29T07:38:46;12.20;99.90
15481;DHT22;7842;50.904;6.670;2022-12-29T07:41:12;12.20;99.90
15481;DHT22;7842;50.904;6.670;2022-12-29T07:43:38;12.30;99.90
15481;DHT22;7842;50.904;6.670;2022-12-29T07:46:03;12.20;99.90
15481;DHT22;7842;50.904;6.670;2022-12-29T07:48:29;12.20;99.90
15481;DHT22;7842;50.904;6.670;2022-12-29T07:50:55;12.10;99.90
15481;DHT22;7842;50.904;6.670;2022-12-29T07:53:20;12.10;99.90
15481;DHT22;7842;50.904;6.670;2022-12-29T07:55:46;12.10;99.90
15481;DHT22;7842;50.904;6.670;2022-12-29T07:58:12;12.10;99.90
15481;DHT22;7842;50.904;6.670;2022-12-29T08:00:38;12.10;99.90
15481;DHT22;7842;50.904;6.670;2022-12-29T08:05:32;12.20;99.90
15481;DHT22;7842;50.904;6.670;2022-12-29T08:07:57;12.10;99.90
15481;DHT22;7842;50.904;6.670;2022-12-29T08:10:23;12.10;99.90
15481;DHT22;7842;50.904;6.670;2022-12-29T08:12:49;12.70;99.90
15481;DHT22;7842;50.904;6.670;2022-12-29T08:15:15;12.00;99.90
15481;DHT22;7842;50.904;6.670;2022-12-29T08:17:41;12.00;99.90
15481;DHT22;7842;50.904;6.670;2022-12-29T08:20:07;12.00;99.90
15481;DHT22;7842;50.904;6.670;2022-12-29T08:22:33;12.00;99.90
15481;DHT22;7842;50.904;6.670;2022-12-29T08:24:59;12.00;99.90
15481;DHT22;7842;50.904;6.670;2022-12-29T08:27:25;13.10;99.90
15481;DHT22;7842;50.904;6.670;2022-12-29T08:29:51;11.90;99.90
15481;DHT22;7842;50.904;6.670;2022-12-29T08:32:17;12.00;99.90
15481;DHT22;7842;50.904;6.670;2022-12-29T08:34:42;12.00;99.90
15481;DHT22;7842;50.904;6.670;2022-12-29T08:37:08;12.00;99.90
15481;DHT22;7842;50.904;6.670;2022-12-29T08:39:33;12.00;99.90
15481;DHT22;7842;50.904;6.670;2022-12-29T08:41:59;11.90;99.90
15481;DHT22;7842;50.904;6.670;2022-12-29T08:44:25;12.00;99.90
15481;DHT22;7842;50.904;6.670;2022-12-29T08:46:50;12.00;99.90
15481;DHT22;7842;50.904;6.670;2022-12-29T08:49:16;12.00;99.90
15481;DHT22;7842;50.904;6.670;2022-12-29T08:51:42;12.00;99.90
15481;DHT22;7842;50.904;6.670;2022-12-29T08:54:07;12.00;99.90
15481;DHT22;7842;50.904;6.670;2022-12-29T08:56:33;11.90;99.90
15481;DHT22;7842;50.904;6.670;2022-12-29T08:58:58;12.00;99.90
15481;DHT22;7842;50.904;6.670;2022-12-29T09:01:24;11.90;99.90
15481;DHT22;7842;50.904;6.670;2022-12-29T09:03:50;12.00;99.90
15481;DHT22;7842;50.904;6.670;2022-12-29T09:06:16;12.00;99.90
15481;DHT22;7842;50.904;6.670;2022-12-29T09:08:43;11.90;99.90
15481;DHT22;7842;50.904;6.670;2022-12-29T09:11:14;11.40;99.90
15481;DHT22;7842;50.904;6.670;2022-12-29T09:13:40;11.80;99.90
15481;DHT22;7842;50.904;6.670;2022-12-29T09:16:06;11.90;99.90
15481;DHT22;7842;50.904;6.670;2022-12-29T09:18:32;11.90;99.90
15481;DHT22;7842;50.904;6.670;2022-12-29T09:21:06;11.90;99.90
15481;DHT22;7842;50.904;6.670;2022-12-29T09:23:33;12.10;99.90
15481;DHT22;7842;50.904;6.670;2022-12-29T09:25:59;12.10;99.90
15481;DHT22;7842;50.904;6.670;2022-12-29T09:28:25;12.20;99.90
15481;DHT22;7842;50.904;6.670;2022-12-29T09:30:51;12.50;99.90
15481;DHT22;7842;50.904;6.670;2022-12-29T09:33:17;12.20;99.90
15481;DHT22;7842;50.904;6.670;2022-12-29T09:35:44;12.30;99.90
15481;DHT22;7842;50.904;6.670;2022-12-29T09:38:10;12.10;99.90
15481;DHT22;7842;50.904;6.670;2022-12-29T09:40:35;12.10;99.90
15481;DHT22;7842;50.904;6.670;2022-12-29T09:46:23;12.10;99.90
15481;DHT22;7842;50.904;6.670;2022-12-29T09:51:23;12.10;99.90
15481;DHT22;7842;50.904;6.670;2022-12-29T09:53:56;12.20;99.90
15481;DHT22;7842;50.904;6.670;2022-12-29T09:56:25;12.20;99.90
15481;DHT22;7842;50.904;6.670;2022-12-29T09:59:04;12.30;99.90
15481;DHT22;7842;50.904;6.670;2022-12-29T10:04:01;12.30;99.90
15481;DHT22;7842;50.904;6.670;2022-12-29T10:06:39;12.30;99.90
15481;DHT22;7842;50.904;6.670;2022-12-29T10:09:14;12.40;99.90
15481;DHT22;7842;50.904;6.670;2022-12-29T10:17:27;12.40;99.90
15481;DHT22;7842;50.904;6.670;2022-12-29T10:25:25;12.50;99.90
15481;DHT22;7842;50.904;6.670;2022-12-29T10:27:54;12.50;99.90
15481;DHT22;7842;50.904;6.670;2022-12-29T10:30:21;12.50;99.90
15481;DHT22;7842;50.904;6.670;2022-12-29T10:32:55;12.50;99.90
15481;DHT22;7842;50.904;6.670;2022-12-29T10:35:29;12.50;99.90
15481;DHT22;7842;50.904;6.670;2022-12-29T10:38:04;12.40;99.90
15481;DHT22;7842;50.904;6.670;2022-12-29T10:40:40;12.50;99.90
15481;DHT22;7842;50.904;6.670;2022-12-29T10:43:27;12.50;99.90
15481;DHT22;7842;50.904;6.670;2022-12-29T10:45:57;12.50;99.90
15481;DHT22;7842;50.904;6.670;2022-12-29T10:48:27;12.60;99.90
15481;DHT22;7842;50.904;6.670;2022-12-29T10:50:56;12.50;99.90
15481;DHT22;7842;50.904;6.670;2022-12-29T10:53:26;12.70;99.90
15481;DHT22;7842;50.904;6.670;2022-12-29T10:55:55;13.50;99.90
15481;DHT22;7842;50.904;6.670;2022-12-29T10:58:22;12.60;99.90
15481;DHT22;7842;50.904;6.670;2022-12-29T11:00:52;12.60;99.90
15481;DHT22;7842;50.904;6.670;2022-12-29T11:03:44;12.70;99.90
15481;DHT22;7842;50.904;6.670;2022-12-29T11:06:25;12.70;99.90
15481;DHT22;7842;50.904;6.670;2022-12-29T11:08:58;12.70;99.90
15481;DHT22;7842;50.904;6.670;2022-12-29T11:11:33;12.80;99.90
15481;DHT22;7842;50.904;6.670;2022-12-29T11:14:19;12.90;99.90
15481;DHT22;7842;50.904;6.670;2022-12-29T11:16:57;12.80;99.90
15481;DHT22;7842;50.904;6.670;2022-12-29T11:19:26;12.80;99.90
15481;DHT22;7842;50.904;6.670;2022-12-29T11:21:52;12.80;99.90
15481;DHT22;7842;50.904;6.670;2022-12-29T11:24:26;12.80;99.90
15481;DHT22;7842;50.904;6.670;2022-12-29T11:27:13;12.70;99.90
15481;DHT22;7842;50.904;6.670;2022-12-29T11:29:41;12.80;99.90
15481;DHT22;7842;50.904;6.670;2022-12-29T11:32:19;12.80;99.90
15481;DHT22;7842;50.904;6.670;2022-12-29T11:34:45;13.00;99.90
15481;DHT22;7842;50.904;6.670;2022-12-29T11:37:12;12.80;99.90
15481;DHT22;7842;50.904;6.670;2022-12-29T11:42:23;12.70;99.90
15481;DHT22;7842;50.904;6.670;2022-12-29T11:44:55;12.70;99.90
15481;DHT22;7842;50.904;6.670;2022-12-29T11:47:29;12.60;99.90
15481;DHT22;7842;50.904;6.670;2022-12-29T11:50:02;12.60;99.90
15481;DHT22;7842;50.904;6.670;2022-12-29T11:52:31;12.60;99.90
15481;DHT22;7842;50.904;6.670;2022-12-29T11:55:00;12.70;99.90
15481;DHT22;7842;50.904;6.670;2022-12-29T11:57:27;12.70;99.90
15481;DHT22;7842;50.904;6.670;2022-12-29T11:59:56;12.70;99.90
15481;DHT22;7842;50.904;6.670;2022-12-29T12:02:43;12.70;99.90
15481;DHT22;7842;50.904;6.670;2022-12-29T12:11:30;12.50;99.90
15481;DHT22;7842;50.904;6.670;2022-12-29T12:14:20;12.60;99.90
15481;DHT22;7842;50.904;6.670;2022-12-29T12:16:54;12.60;99.90
15481;DHT22;7842;50.904;6.670;2022-12-29T12:19:38;12.50;99.90
15481;DHT22;7842;50.904;6.670;2022-12-29T12:22:37;12.60;99.90
15481;DHT22;7842;50.904;6.670;2022-12-29T12:25:27;12.70;99.90
15481;DHT22;7842;50.904;6.670;2022-12-29T12:28:37;12.60;99.90
15481;DHT22;7842;50.904;6.670;2022-12-29T12:31:18;12.70;99.90
15481;DHT22;7842;50.904;6.670;2022-12-29T12:33:50;12.70;99.90
15481;DHT22;7842;50.904;6.670;2022-12-29T12:36:43;12.70;99.90
15481;DHT22;7842;50.904;6.670;2022-12-29T12:40:07;12.70;99.90
15481;DHT22;7842;50.904;6.670;2022-12-29T12:50:52;12.50;99.90
15481;DHT22;7842;50.904;6.670;2022-12-29T12:53:46;12.50;99.90
15481;DHT22;7842;50.904;6.670;2022-12-29T13:02:00;12.50;99.90
15481;DHT22;7842;50.904;6.670;2022-12-29T13:10:31;12.40;99.90
15481;DHT22;7842;50.904;6.670;2022-12-29T13:18:48;12.20;99.90
15481;DHT22;7842;50.904;6.670;2022-12-29T13:21:56;12.20;99.90
15481;DHT22;7842;50.904;6.670;2022-12-29T13:27:14;12.10;99.90
15481;DHT22;7842;50.904;6.670;2022-12-29T13:30:01;12.00;99.90
15481;DHT22;7842;50.904;6.670;2022-12-29T13:35:19;12.10;99.90
15481;DHT22;7842;50.904;6.670;2022-12-29T13:37:57;12.10;99.90
15481;DHT22;7842;50.904;6.670;2022-12-29T13:40:27;12.10;99.90
15481;DHT22;7842;50.904;6.670;2022-12-29T13:42:55;12.00;99.90
15481;DHT22;7842;50.904;6.670;2022-12-29T13:45:24;12.00;99.90
15481;DHT22;7842;50.904;6.670;2022-12-29T13:50:42;12.00;99.90
15481;DHT22;7842;50.904;6.670;2022-12-29T14:02:21;11.90;99.90
15481;DHT22;7842;50.904;6.670;2022-12-29T14:04:59;11.80;99.90
15481;DHT22;7842;50.904;6.670;2022-12-29T14:07:25;11.90;99.90
15481;DHT22;7842;50.904;6.670;2022-12-29T14:09:53;12.60;99.90
15481;DHT22;7842;50.904;6.670;2022-12-29T14:14:53;12.00;99.90
15481;DHT22;7842;50.904;6.670;2022-12-29T14:17:20;12.00;99.90
15481;DHT22;7842;50.904;6.670;2022-12-29T14:19:51;12.00;99.90
15481;DHT22;7842;50.904;6.670;2022-12-29T14:22:23;12.00;99.90
15481;DHT22;7842;50.904;6.670;2022-12-29T14:24:49;12.00;99.90
15481;DHT22;7842;50.904;6.670;2022-12-29T14:29:42;12.00;99.90
15481;DHT22;7842;50.904;6.670;2022-12-29T14:34:57;11.80;99.90
15481;DHT22;7842;50.904;6.670;2022-12-29T14:37:31;11.80;99.90
15481;DHT22;7842;50.904;6.670;2022-12-29T14:40:21;11.70;99.90
15481;DHT22;7842;50.904;6.670;2022-12-29T14:42:49;11.60;99.90
15481;DHT22;7842;50.904;6.670;2022-12-29T14:47:47;11.50;99.90
15481;DHT22;7842;50.904;6.670;2022-12-29T14:53:02;11.40;99.90
15481;DHT22;7842;50.904;6.670;2022-12-29T14:55:38;11.50;99.90
15481;DHT22;7842;50.904;6.670;2022-12-29T14:58:14;11.50;99.90
15481;DHT22;7842;50.904;6.670;2022-12-29T15:00:41;11.50;99.90
15481;DHT22;7842;50.904;6.670;2022-12-29T15:06:04;11.50;99.90
15481;DHT22;7842;50.904;6.670;2022-12-29T15:08:36;11.40;99.90
15481;DHT22;7842;50.904;6.670;2022-12-29T15:11:10;11.30;99.90
15481;DHT22;7842;50.904;6.670;2022-12-29T15:13:39;11.30;99.90
15481;DHT22;7842;50.904;6.670;2022-12-29T15:16:21;11.40;99.90
15481;DHT22;7842;50.904;6.670;2022-12-29T15:18:47;11.30;99.90
15481;DHT22;7842;50.904;6.670;2022-12-29T15:21:14;11.20;99.90
15481;DHT22;7842;50.904;6.670;2022-12-29T15:23:43;11.20;99.90
15481;DHT22;7842;50.904;6.670;2022-12-29T15:26:09;11.10;99.90
15481;DHT22;7842;50.904;6.670;2022-12-29T15:28:39;11.10;99.90
15481;DHT22;7842;50.904;6.670;2022-12-29T15:33:42;11.10;99.90
15481;DHT22;7842;50.904;6.670;2022-12-29T15:36:13;11.00;99.90
15481;DHT22;7842;50.904;6.670;2022-12-29T15:38:40;10.90;99.90
15481;DHT22;7842;50.904;6.670;2022-12-29T15:44:14;10.90;99.90
15481;DHT22;7842;50.904;6.670;2022-12-29T15:46:41;10.70;99.90
15481;DHT22;7842;50.904;6.670;2022-12-29T15:49:08;10.80;99.90
15481;DHT22;7842;50.904;6.670;2022-12-29T15:51:38;10.70;99.90
15481;DHT22;7842;50.904;6.670;2022-12-29T15:54:05;10.60;99.90
15481;DHT22;7842;50.904;6.670;2022-12-29T15:56:32;10.70;99.90
15481;DHT22;7842;50.904;6.670;2022-12-29T15:58:59;10.50;99.90
15481;DHT22;7842;50.904;6.670;2022-12-29T16:01:32;10.50;99.90
15481;DHT22;7842;50.904;6.670;2022-12-29T16:04:05;10.40;99.90
15481;DHT22;7842;50.904;6.670;2022-12-29T16:06:42;10.30;99.90
15481;DHT22;7842;50.904;6.670;2022-12-29T16:09:28;10.30;99.90
15481;DHT22;7842;50.904;6.670;2022-12-29T16:11:56;10.30;99.90
15481;DHT22;7842;50.904;6.670;2022-12-29T16:14:47;10.30;99.90
15481;DHT22;7842;50.904;6.670;2022-12-29T16:17:26;10.20;99.90
15481;DHT22;7842;50.904;6.670;2022-12-29T16:25:28;10.10;99.90
15481;DHT22;7842;50.904;6.670;2022-12-29T16:27:57;10.10;99.90
15481;DHT22;7842;50.904;6.670;2022-12-29T16:30:30;10.00;99.90
15481;DHT22;7842;50.904;6.670;2022-12-29T16:33:01;10.00;99.90
15481;DHT22;7842;50.904;6.670;2022-12-29T16:35:34;10.10;99.90
15481;DHT22;7842;50.904;6.670;2022-12-29T16:38:17;10.00;99.90
15481;DHT22;7842;50.904;6.670;2022-12-29T16:40:53;10.00;99.90
15481;DHT22;7842;50.904;6.670;2022-12-29T16:48:21;9.80;99.90
15481;DHT22;7842;50.904;6.670;2022-12-29T16:50:48;9.60;99.90
15481;DHT22;7842;50.904;6.670;2022-12-29T16:55:48;9.70;99.90
15481;DHT22;7842;50.904;6.670;2022-12-29T16:58:32;9.70;99.90
15481;DHT22;7842;50.904;6.670;2022-12-29T17:01:02;9.70;99.90
15481;DHT22;7842;50.904;6.670;2022-12-29T17:03:38;9.70;99.90
15481;DHT22;7842;50.904;6.670;2022-12-29T17:06:04;9.60;99.90
15481;DHT22;7842;50.904;6.670;2022-12-29T17:08:39;9.70;99.90
15481;DHT22;7842;50.904;6.670;2022-12-29T17:11:08;9.70;99.90
15481;DHT22;7842;50.904;6.670;2022-12-29T17:13:59;9.70;99.90
15481;DHT22;7842;50.904;6.670;2022-12-29T17:16:24;9.80;99.90
15481;DHT22;7842;50.904;6.670;2022-12-29T17:18:50;9.90;99.90
15481;DHT22;7842;50.904;6.670;2022-12-29T17:21:16;9.80;99.90
15481;DHT22;7842;50.904;6.670;2022-12-29T17:23:42;9.80;99.90
15481;DHT22;7842;50.904;6.670;2022-12-29T17:26:08;9.90;99.90
15481;DHT22;7842;50.904;6.670;2022-12-29T17:28:34;9.90;99.90
15481;DHT22;7842;50.904;6.670;2022-12-29T17:31:02;9.80;99.90
15481;DHT22;7842;50.904;6.670;2022-12-29T17:33:31;9.60;99.90
15481;DHT22;7842;50.904;6.670;2022-12-29T17:35:59;9.60;99.90
15481;DHT22;7842;50.904;6.670;2022-12-29T17:38:28;9.50;99.90
15481;DHT22;7842;50.904;6.670;2022-12-29T17:40:55;9.50;99.90
15481;DHT22;7842;50.904;6.670;2022-12-29T17:43:21;9.50;99.90
15481;DHT22;7842;50.904;6.670;2022-12-29T17:45:55;9.40;99.90
15481;DHT22;7842;50.904;6.670;2022-12-29T17:48:22;9.30;99.90
15481;DHT22;7842;50.904;6.670;2022-12-29T17:50:53;9.40;99.90
15481;DHT22;7842;50.904;6.670;2022-12-29T17:53:27;9.30;99.90
15481;DHT22;7842;50.904;6.670;2022-12-29T17:55:53;9.40;99.90
15481;DHT22;7842;50.904;6.670;2022-12-29T17:58:26;9.50;99.90
15481;DHT22;7842;50.904;6.670;2022-12-29T18:00:55;9.40;99.90
15481;DHT22;7842;50.904;6.670;2022-12-29T18:03:30;9.60;99.90
15481;DHT22;7842;50.904;6.670;2022-12-29T18:05:59;9.60;99.90
15481;DHT22;7842;50.904;6.670;2022-12-29T18:08:25;9.70;99.90
15481;DHT22;7842;50.904;6.670;2022-12-29T18:10:56;9.80;99.90
15481;DHT22;7842;50.904;6.670;2022-12-29T18:13:25;9.80;99.90
15481;DHT22;7842;50.904;6.670;2022-12-29T18:15:52;9.80;99.90
15481;DHT22;7842;50.904;6.670;2022-12-29T18:18:22;9.70;99.90
15481;DHT22;7842;50.904;6.670;2022-12-29T18:20:50;9.60;99.90
15481;DHT22;7842;50.904;6.670;2022-12-29T18:23:22;9.70;99.90
15481;DHT22;7842;50.904;6.670;2022-12-29T18:26:02;9.50;99.90
15481;DHT22;7842;50.904;6.670;2022-12-29T18:28:29;9.40;99.90
15481;DHT22;7842;50.904;6.670;2022-12-29T18:30:56;9.30;99.90